Terminal Aerodrome Forecast
Issued by NWS Houston/Galveston TX

Home | Current Version | Previous Version | Text Only | Print | Product List | Glossary On
Versions: 1 2 3 4 5 6 7 8 9 10 11 12 13 14 15 16 17 18 19 20 21 22 23 24 25 26 27 28 29 30 31 32 33 34 35 36 37 38 39 40 41 42 43 44
000
FTUS44 KHGX 271722
TAFHOU
TAF
KHOU 271722Z 2718/2818 10011KT P6SM VCTS SCT040CB BKN250
      TEMPO 2718/2721 VRB15KT 4SM TSRA BKN035CB
     FM280100 10008KT P6SM FEW025 BKN250
     FM280700 07006KT P6SM VCSH SCT020 BKN250
     FM281500 09009KT P6SM VCSH SCT035 BKN045=

USA.gov is the U.S. government's official web portal to all federal, state and local government web resources and services.